sensor_id;sensor_type;location;lat;lon;timestamp;pressure;altitude;pressure_sealevel;temperature;humidity
44027;BME280;29696;55.698;37.460;2022-10-16T00:01:27;100741.41;;;4.00;73.55
44027;BME280;29696;55.698;37.460;2022-10-16T00:03:55;100731.16;;;3.96;73.55
44027;BME280;29696;55.698;37.460;2022-10-16T00:06:23;100735.59;;;3.94;73.56
44027;BME280;29696;55.698;37.460;2022-10-16T00:08:50;100741.78;;;3.91;73.56
44027;BME280;29696;55.698;37.460;2022-10-16T00:11:23;100740.63;;;3.98;73.42
44027;BME280;29696;55.698;37.460;2022-10-16T00:13:53;100747.69;;;3.96;73.32
44027;BME280;29696;55.698;37.460;2022-10-16T00:16:20;100742.59;;;3.93;73.33
44027;BME280;29696;55.698;37.460;2022-10-16T00:18:47;100746.75;;;3.97;73.15
44027;BME280;29696;55.698;37.460;2022-10-16T00:21:16;100745.78;;;4.00;72.85
44027;BME280;29696;55.698;37.460;2022-10-16T00:24:05;100751.03;;;4.00;72.53
44027;BME280;29696;55.698;37.460;2022-10-16T00:26:33;100757.22;;;3.97;73.00
44027;BME280;29696;55.698;37.460;2022-10-16T00:29:00;100755.66;;;3.93;73.29
44027;BME280;29696;55.698;37.460;2022-10-16T00:31:26;100749.50;;;3.94;73.25
44027;BME280;29696;55.698;37.460;2022-10-16T00:33:53;100748.88;;;3.89;73.24
44027;BME280;29696;55.698;37.460;2022-10-16T00:36:23;100754.03;;;3.91;73.36
44027;BME280;29696;55.698;37.460;2022-10-16T00:38:51;100758.47;;;3.88;73.54
44027;BME280;29696;55.698;37.460;2022-10-16T00:41:22;100759.50;;;3.84;73.67
44027;BME280;29696;55.698;37.460;2022-10-16T00:43:51;100767.44;;;3.83;73.76
44027;BME280;29696;55.698;37.460;2022-10-16T00:46:40;100761.28;;;3.84;73.77
44027;BME280;29696;55.698;37.460;2022-10-16T00:49:30;100761.94;;;3.89;73.85
44027;BME280;29696;55.698;37.460;2022-10-16T00:51:56;100762.44;;;3.77;73.77
44027;BME280;29696;55.698;37.460;2022-10-16T00:54:26;100754.72;;;3.74;74.30
44027;BME280;29696;55.698;37.460;2022-10-16T00:56:55;100760.94;;;3.71;73.92
44027;BME280;29696;55.698;37.460;2022-10-16T00:59:26;100766.88;;;3.75;74.00
44027;BME280;29696;55.698;37.460;2022-10-16T01:01:53;100769.63;;;3.72;74.05
44027;BME280;29696;55.698;37.460;2022-10-16T01:04:21;100777.53;;;3.70;74.02
44027;BME280;29696;55.698;37.460;2022-10-16T01:10:22;100773.38;;;3.64;74.48
44027;BME280;29696;55.698;37.460;2022-10-16T01:13:27;100775.88;;;3.67;74.89
44027;BME280;29696;55.698;37.460;2022-10-16T01:16:11;100784.16;;;3.57;75.16
44027;BME280;29696;55.698;37.460;2022-10-16T01:18:43;100775.72;;;3.50;75.38
44027;BME280;29696;55.698;37.460;2022-10-16T01:27:31;100779.97;;;3.53;75.73
44027;BME280;29696;55.698;37.460;2022-10-16T01:30:17;100771.72;;;3.41;75.69
44027;BME280;29696;55.698;37.460;2022-10-16T01:32:53;100787.16;;;3.48;75.83
44027;BME280;29696;55.698;37.460;2022-10-16T01:35:34;100783.13;;;3.39;75.86
44027;BME280;29696;55.698;37.460;2022-10-16T01:38:06;100781.66;;;3.32;75.83
44027;BME280;29696;55.698;37.460;2022-10-16T01:40:36;100788.66;;;3.31;76.07
44027;BME280;29696;55.698;37.460;2022-10-16T01:43:10;100791.09;;;3.36;75.94
44027;BME280;29696;55.698;37.460;2022-10-16T01:45:38;100791.03;;;3.37;75.49
44027;BME280;29696;55.698;37.460;2022-10-16T01:48:07;100784.94;;;3.37;75.50
44027;BME280;29696;55.698;37.460;2022-10-16T01:50:38;100788.38;;;3.39;75.52
44027;BME280;29696;55.698;37.460;2022-10-16T01:53:07;100791.88;;;3.38;75.18
44027;BME280;29696;55.698;37.460;2022-10-16T01:55:38;100787.41;;;3.41;75.07
44027;BME280;29696;55.698;37.460;2022-10-16T01:58:12;100789.13;;;3.41;75.05
44027;BME280;29696;55.698;37.460;2022-10-16T02:00:42;100787.41;;;3.41;75.16
44027;BME280;29696;55.698;37.460;2022-10-16T02:03:11;100792.78;;;3.37;75.04
44027;BME280;29696;55.698;37.460;2022-10-16T02:05:59;100798.56;;;3.45;75.42
44027;BME280;29696;55.698;37.460;2022-10-16T02:08:27;100805.84;;;3.37;75.17
44027;BME280;29696;55.698;37.460;2022-10-16T02:10:56;100787.75;;;3.32;75.24
44027;BME280;29696;55.698;37.460;2022-10-16T02:13:29;100795.47;;;3.35;75.24
44027;BME280;29696;55.698;37.460;2022-10-16T02:15:57;100787.81;;;3.31;75.55
44027;BME280;29696;55.698;37.460;2022-10-16T02:18:23;100788.97;;;3.24;75.43
44027;BME280;29696;55.698;37.460;2022-10-16T02:21:28;100794.47;;;3.38;75.46
44027;BME280;29696;55.698;37.460;2022-10-16T02:27:05;100788.59;;;3.33;75.23
44027;BME280;29696;55.698;37.460;2022-10-16T02:29:39;100796.72;;;3.25;75.39
44027;BME280;29696;55.698;37.460;2022-10-16T02:32:07;100799.53;;;3.20;75.34
44027;BME280;29696;55.698;37.460;2022-10-16T02:34:36;100796.97;;;3.19;75.65
44027;BME280;29696;55.698;37.460;2022-10-16T02:37:04;100802.25;;;3.17;75.46
44027;BME280;29696;55.698;37.460;2022-10-16T02:39:31;100807.53;;;3.16;75.53
44027;BME280;29696;55.698;37.460;2022-10-16T02:41:58;100799.78;;;3.14;75.64
44027;BME280;29696;55.698;37.460;2022-10-16T02:44:25;100800.72;;;3.12;75.77
44027;BME280;29696;55.698;37.460;2022-10-16T02:46:51;100807.72;;;3.11;76.08
44027;BME280;29696;55.698;37.460;2022-10-16T02:49:17;100807.75;;;3.10;75.77
44027;BME280;29696;55.698;37.460;2022-10-16T02:51:44;100805.22;;;3.08;75.66
44027;BME280;29696;55.698;37.460;2022-10-16T02:54:10;100806.09;;;3.07;75.85
44027;BME280;29696;55.698;37.460;2022-10-16T02:56:37;100808.81;;;3.06;76.04
44027;BME280;29696;55.698;37.460;2022-10-16T02:59:03;100799.34;;;3.02;76.18
44027;BME280;29696;55.698;37.460;2022-10-16T03:01:29;100808.09;;;3.01;76.32
44027;BME280;29696;55.698;37.460;2022-10-16T03:03:56;100808.22;;;2.97;76.52
44027;BME280;29696;55.698;37.460;2022-10-16T03:06:22;100816.06;;;2.97;76.58
44027;BME280;29696;55.698;37.460;2022-10-16T03:08:48;100813.56;;;2.94;76.52
44027;BME280;29696;55.698;37.460;2022-10-16T03:11:14;100816.09;;;2.96;76.47
44027;BME280;29696;55.698;37.460;2022-10-16T03:13:41;100824.72;;;2.98;76.52
44027;BME280;29696;55.698;37.460;2022-10-16T03:16:07;100812.63;;;2.95;76.67
44027;BME280;29696;55.698;37.460;2022-10-16T03:18:34;100817.09;;;2.93;76.43
44027;BME280;29696;55.698;37.460;2022-10-16T03:21:00;100820.38;;;2.98;76.32
44027;BME280;29696;55.698;37.460;2022-10-16T03:23:26;100827.53;;;2.93;76.28
44027;BME280;29696;55.698;37.460;2022-10-16T03:25:53;100823.94;;;2.96;76.37
44027;BME280;29696;55.698;37.460;2022-10-16T03:28:19;100831.09;;;2.91;76.31
44027;BME280;29696;55.698;37.460;2022-10-16T03:30:46;100826.09;;;2.85;76.85
44027;BME280;29696;55.698;37.460;2022-10-16T03:33:12;100835.75;;;2.83;76.94
44027;BME280;29696;55.698;37.460;2022-10-16T03:35:38;100834.94;;;2.81;77.38
44027;BME280;29696;55.698;37.460;2022-10-16T03:38:05;100835.00;;;2.79;77.48
44027;BME280;29696;55.698;37.460;2022-10-16T03:40:31;100842.00;;;2.79;77.44
44027;BME280;29696;55.698;37.460;2022-10-16T03:42:58;100833.34;;;2.77;77.08
44027;BME280;29696;55.698;37.460;2022-10-16T03:45:25;100827.22;;;2.78;77.18
44027;BME280;29696;55.698;37.460;2022-10-16T03:47:52;100831.59;;;2.77;76.91
44027;BME280;29696;55.698;37.460;2022-10-16T03:50:18;100829.06;;;2.76;76.97
44027;BME280;29696;55.698;37.460;2022-10-16T03:52:44;100831.59;;;2.77;76.94
44027;BME280;29696;55.698;37.460;2022-10-16T03:55:10;100833.34;;;2.77;76.98
44027;BME280;29696;55.698;37.460;2022-10-16T03:57:38;100839.38;;;2.79;76.90
44027;BME280;29696;55.698;37.460;2022-10-16T04:00:05;100832.53;;;2.74;76.78
44027;BME280;29696;55.698;37.460;2022-10-16T04:02:38;100836.88;;;2.76;76.95
44027;BME280;29696;55.698;37.460;2022-10-16T04:05:05;100829.81;;;2.78;77.18
44027;BME280;29696;55.698;37.460;2022-10-16T04:07:31;100838.41;;;2.81;77.06
44027;BME280;29696;55.698;37.460;2022-10-16T04:09:57;100835.78;;;2.81;77.04
44027;BME280;29696;55.698;37.460;2022-10-16T04:12:26;100832.31;;;2.81;76.96
44027;BME280;29696;55.698;37.460;2022-10-16T04:14:52;100828.16;;;3.00;76.67
44027;BME280;29696;55.698;37.460;2022-10-16T04:17:18;100841.94;;;3.49;76.30
44027;BME280;29696;55.698;37.460;2022-10-16T04:19:47;100841.34;;;4.08;73.84
44027;BME280;29696;55.698;37.460;2022-10-16T04:22:14;100829.03;;;4.72;71.72
44027;BME280;29696;55.698;37.460;2022-10-16T04:24:40;100833.75;;;5.41;68.50
44027;BME280;29696;55.698;37.460;2022-10-16T04:27:06;100843.81;;;6.05;65.63
44027;BME280;29696;55.698;37.460;2022-10-16T04:29:32;100832.50;;;6.73;62.99
44027;BME280;29696;55.698;37.460;2022-10-16T04:31:59;100834.31;;;7.37;60.29
44027;BME280;29696;55.698;37.460;2022-10-16T04:34:25;100836.81;;;8.02;58.60
44027;BME280;29696;55.698;37.460;2022-10-16T04:36:51;100843.78;;;8.03;57.36
44027;BME280;29696;55.698;37.460;2022-10-16T04:39:18;100838.66;;;7.38;58.33
44027;BME280;29696;55.698;37.460;2022-10-16T04:41:44;100847.06;;;7.61;57.79
44027;BME280;29696;55.698;37.460;2022-10-16T04:44:10;100847.66;;;8.12;56.99
44027;BME280;29696;55.698;37.460;2022-10-16T04:46:36;100843.97;;;8.75;55.40
44027;BME280;29696;55.698;37.460;2022-10-16T04:49:03;100844.28;;;9.13;53.40
44027;BME280;29696;55.698;37.460;2022-10-16T04:51:29;100844.09;;;10.12;51.34
44027;BME280;29696;55.698;37.460;2022-10-16T04:53:55;100835.72;;;11.09;48.54
44027;BME280;29696;55.698;37.460;2022-10-16T04:56:22;100847.28;;;11.94;45.89
44027;BME280;29696;55.698;37.460;2022-10-16T04:58:51;100845.69;;;12.73;43.95
44027;BME280;29696;55.698;37.460;2022-10-16T05:01:17;100843.09;;;13.41;42.41
44027;BME280;29696;55.698;37.460;2022-10-16T05:03:43;100838.38;;;13.88;40.90
44027;BME280;29696;55.698;37.460;2022-10-16T05:06:10;100848.59;;;14.36;39.54
44027;BME280;29696;55.698;37.460;2022-10-16T05:08:36;100845.69;;;15.12;37.98
44027;BME280;29696;55.698;37.460;2022-10-16T05:11:02;100856.28;;;15.33;37.36
44027;BME280;29696;55.698;37.460;2022-10-16T05:13:29;100842.13;;;15.92;36.02
44027;BME280;29696;55.698;37.460;2022-10-16T05:15:55;100849.25;;;16.30;35.25
44027;BME280;29696;55.698;37.460;2022-10-16T05:18:21;100842.19;;;16.78;34.06
44027;BME280;29696;55.698;37.460;2022-10-16T05:20:48;100845.31;;;17.48;33.04
44027;BME280;29696;55.698;37.460;2022-10-16T05:23:14;100847.69;;;17.96;31.98
44027;BME280;29696;55.698;37.460;2022-10-16T05:25:40;100844.16;;;18.14;31.38
44027;BME280;29696;55.698;37.460;2022-10-16T05:28:06;100848.59;;;17.60;32.24
44027;BME280;29696;55.698;37.460;2022-10-16T05:30:33;100854.94;;;17.76;31.73
44027;BME280;29696;55.698;37.460;2022-10-16T05:32:59;100854.59;;;17.71;32.04
44027;BME280;29696;55.698;37.460;2022-10-16T05:35:25;100849.28;;;18.07;31.25
44027;BME280;29696;55.698;37.460;2022-10-16T05:37:52;100855.13;;;18.90;30.14
44027;BME280;29696;55.698;37.460;2022-10-16T05:40:18;100851.38;;;19.52;29.18
44027;BME280;29696;55.698;37.460;2022-10-16T05:42:45;100862.28;;;20.17;28.37
44027;BME280;29696;55.698;37.460;2022-10-16T05:45:11;100860.44;;;20.83;27.39
44027;BME280;29696;55.698;37.460;2022-10-16T05:47:38;100863.16;;;21.39;26.41
44027;BME280;29696;55.698;37.460;2022-10-16T05:50:05;100864.34;;;21.36;26.27
44027;BME280;29696;55.698;37.460;2022-10-16T05:52:31;100867.75;;;21.06;26.28
44027;BME280;29696;55.698;37.460;2022-10-16T05:54:57;100862.53;;;21.12;26.17
44027;BME280;29696;55.698;37.460;2022-10-16T05:57:23;100865.94;;;21.06;26.24
44027;BME280;29696;55.698;37.460;2022-10-16T05:59:50;100869.81;;;21.51;25.83
44027;BME280;29696;55.698;37.460;2022-10-16T06:02:16;100870.66;;;21.52;25.66
44027;BME280;29696;55.698;37.460;2022-10-16T06:04:42;100874.03;;;21.46;25.73
44027;BME280;29696;55.698;37.460;2022-10-16T06:07:09;100874.69;;;21.48;25.61
44027;BME280;29696;55.698;37.460;2022-10-16T06:09:35;100872.34;;;22.07;24.76
44027;BME280;29696;55.698;37.460;2022-10-16T06:12:01;100874.84;;;22.54;24.34
44027;BME280;29696;55.698;37.460;2022-10-16T06:14:28;100875.47;;;22.42;24.30
44027;BME280;29696;55.698;37.460;2022-10-16T06:16:54;100879.97;;;22.64;24.31
44027;BME280;29696;55.698;37.460;2022-10-16T06:19:20;100872.81;;;22.56;23.93
44027;BME280;29696;55.698;37.460;2022-10-16T06:21:47;100881.75;;;22.72;24.07
44027;BME280;29696;55.698;37.460;2022-10-16T06:24:14;100883.75;;;22.55;24.32
44027;BME280;29696;55.698;37.460;2022-10-16T06:26:40;100877.59;;;22.46;24.39
44027;BME280;29696;55.698;37.460;2022-10-16T06:29:08;100879.50;;;22.61;23.93
44027;BME280;29696;55.698;37.460;2022-10-16T06:31:34;100877.56;;;22.69;23.95
44027;BME280;29696;55.698;37.460;2022-10-16T06:34:01;100884.44;;;22.95;23.55
44027;BME280;29696;55.698;37.460;2022-10-16T06:36:28;100884.25;;;22.73;23.93
44027;BME280;29696;55.698;37.460;2022-10-16T06:38:54;100880.81;;;23.32;23.20
44027;BME280;29696;55.698;37.460;2022-10-16T06:41:22;100888.34;;;23.07;23.30
44027;BME280;29696;55.698;37.460;2022-10-16T06:43:48;100893.25;;;23.33;23.14
44027;BME280;29696;55.698;37.460;2022-10-16T06:46:17;100894.19;;;20.94;25.73
44027;BME280;29696;55.698;37.460;2022-10-16T06:48:44;100888.56;;;21.12;26.06
44027;BME280;29696;55.698;37.460;2022-10-16T06:51:30;100889.34;;;22.30;25.46
44027;BME280;29696;55.698;37.460;2022-10-16T06:53:58;100889.53;;;21.27;25.77
44027;BME280;29696;55.698;37.460;2022-10-16T06:56:26;100890.31;;;20.88;26.24
44027;BME280;29696;55.698;37.460;2022-10-16T06:58:53;100899.00;;;21.07;26.13
44027;BME280;29696;55.698;37.460;2022-10-16T07:01:22;100891.47;;;22.20;25.14
44027;BME280;29696;55.698;37.460;2022-10-16T07:03:48;100891.72;;;22.02;24.84
44027;BME280;29696;55.698;37.460;2022-10-16T07:06:17;100895.47;;;22.24;24.74
44027;BME280;29696;55.698;37.460;2022-10-16T07:08:45;100892.34;;;22.73;24.42
44027;BME280;29696;55.698;37.460;2022-10-16T07:11:15;100896.06;;;23.25;23.88
44027;BME280;29696;55.698;37.460;2022-10-16T07:13:43;100894.19;;;23.40;23.53
44027;BME280;29696;55.698;37.460;2022-10-16T07:16:15;100901.53;;;23.61;23.47
44027;BME280;29696;55.698;37.460;2022-10-16T07:18:43;100897.31;;;23.88;22.89
44027;BME280;29696;55.698;37.460;2022-10-16T07:21:15;100892.56;;;24.55;22.78
44027;BME280;29696;55.698;37.460;2022-10-16T07:23:42;100901.31;;;23.78;22.85
44027;BME280;29696;55.698;37.460;2022-10-16T07:26:09;100903.50;;;23.08;23.67
44027;BME280;29696;55.698;37.460;2022-10-16T07:28:37;100894.72;;;22.53;24.89
44027;BME280;29696;55.698;37.460;2022-10-16T07:31:06;100902.66;;;22.32;25.09
44027;BME280;29696;55.698;37.460;2022-10-16T07:33:34;100898.56;;;22.59;25.51
44027;BME280;29696;55.698;37.460;2022-10-16T07:36:01;100897.06;;;23.09;24.48
44027;BME280;29696;55.698;37.460;2022-10-16T07:38:27;100898.66;;;23.33;24.21
44027;BME280;29696;55.698;37.460;2022-10-16T07:40:58;100901.91;;;23.73;24.29
44027;BME280;29696;55.698;37.460;2022-10-16T07:43:26;100907.53;;;22.28;25.34
44027;BME280;29696;55.698;37.460;2022-10-16T07:45:53;100900.94;;;21.29;26.46
44027;BME280;29696;55.698;37.460;2022-10-16T07:48:19;100894.00;;;20.46;27.32
44027;BME280;29696;55.698;37.460;2022-10-16T07:50:46;100896.72;;;19.71;28.81
44027;BME280;29696;55.698;37.460;2022-10-16T07:53:13;100898.59;;;18.84;29.65
44027;BME280;29696;55.698;37.460;2022-10-16T07:55:39;100898.06;;;18.37;30.56
44027;BME280;29696;55.698;37.460;2022-10-16T07:58:06;100904.53;;;17.98;31.63
44027;BME280;29696;55.698;37.460;2022-10-16T08:00:32;100897.72;;;17.76;31.84
44027;BME280;29696;55.698;37.460;2022-10-16T08:02:59;100901.53;;;17.19;32.73
44027;BME280;29696;55.698;37.460;2022-10-16T08:05:31;100902.19;;;16.74;34.02
44027;BME280;29696;55.698;37.460;2022-10-16T08:07:58;100897.41;;;15.90;34.96
44027;BME280;29696;55.698;37.460;2022-10-16T08:10:26;100911.97;;;15.15;36.16
44027;BME280;29696;55.698;37.460;2022-10-16T08:12:53;100900.97;;;14.24;38.04
44027;BME280;29696;55.698;37.460;2022-10-16T08:15:20;100895.47;;;13.39;39.71
44027;BME280;29696;55.698;37.460;2022-10-16T08:17:59;100897.38;;;13.14;41.20
44027;BME280;29696;55.698;37.460;2022-10-16T08:20:26;100905.88;;;12.38;42.55
44027;BME280;29696;55.698;37.460;2022-10-16T08:22:53;100892.84;;;12.10;43.17
44027;BME280;29696;55.698;37.460;2022-10-16T08:25:21;100898.06;;;11.88;43.98
44027;BME280;29696;55.698;37.460;2022-10-16T08:27:49;100905.06;;;11.76;44.53
44027;BME280;29696;55.698;37.460;2022-10-16T08:30:17;100899.53;;;11.66;45.14
44027;BME280;29696;55.698;37.460;2022-10-16T08:32:43;100893.97;;;11.58;44.96
44027;BME280;29696;55.698;37.460;2022-10-16T08:35:11;100902.66;;;11.48;45.46
44027;BME280;29696;55.698;37.460;2022-10-16T08:37:37;100896.03;;;11.29;46.01
44027;BME280;29696;55.698;37.460;2022-10-16T08:40:06;100898.28;;;11.23;46.60
44027;BME280;29696;55.698;37.460;2022-10-16T08:49:13;100902.94;;;10.93;46.89
44027;BME280;29696;55.698;37.460;2022-10-16T08:51:40;100889.91;;;10.90;47.08
44027;BME280;29696;55.698;37.460;2022-10-16T08:57:22;100887.78;;;10.83;47.62
44027;BME280;29696;55.698;37.460;2022-10-16T08:59:50;100887.38;;;10.76;47.31
44027;BME280;29696;55.698;37.460;2022-10-16T09:02:35;100891.09;;;10.86;47.38
44027;BME280;29696;55.698;37.460;2022-10-16T09:23:36;100875.53;;;10.94;47.38
44027;BME280;29696;55.698;37.460;2022-10-16T09:26:05;100875.09;;;11.01;47.38
44027;BME280;29696;55.698;37.460;2022-10-16T09:28:31;100877.00;;;11.11;46.98
44027;BME280;29696;55.698;37.460;2022-10-16T09:30:57;100876.16;;;11.11;46.39
44027;BME280;29696;55.698;37.460;2022-10-16T09:33:29;100877.41;;;11.18;46.33
44027;BME280;29696;55.698;37.460;2022-10-16T09:35:59;100870.66;;;11.14;45.66
44027;BME280;29696;55.698;37.460;2022-10-16T09:38:28;100882.81;;;11.16;45.34
44027;BME280;29696;55.698;37.460;2022-10-16T09:40:56;100875.81;;;11.15;45.96
44027;BME280;29696;55.698;37.460;2022-10-16T09:43:56;100873.50;;;11.24;45.94
44027;BME280;29696;55.698;37.460;2022-10-16T09:46:47;100864.06;;;11.32;44.86
44027;BME280;29696;55.698;37.460;2022-10-16T09:49:25;100876.53;;;11.30;44.80
44027;BME280;29696;55.698;37.460;2022-10-16T09:52:10;100867.91;;;11.28;45.08
44027;BME280;29696;55.698;37.460;2022-10-16T09:54:49;100865.97;;;11.30;45.02
44027;BME280;29696;55.698;37.460;2022-10-16T09:57:15;100853.91;;;11.26;45.61
44027;BME280;29696;55.698;37.460;2022-10-16T09:59:53;100861.72;;;11.40;45.02
44027;BME280;29696;55.698;37.460;2022-10-16T10:02:29;100857.38;;;11.39;44.62
44027;BME280;29696;55.698;37.460;2022-10-16T10:04:56;100852.72;;;11.30;44.84
44027;BME280;29696;55.698;37.460;2022-10-16T10:07:26;100863.84;;;11.35;45.26
44027;BME280;29696;55.698;37.460;2022-10-16T10:09:54;100861.94;;;11.37;45.40
44027;BME280;29696;55.698;37.460;2022-10-16T10:12:25;100851.00;;;11.42;45.14
44027;BME280;29696;55.698;37.460;2022-10-16T10:14:55;100853.56;;;11.43;44.58
44027;BME280;29696;55.698;37.460;2022-10-16T10:17:28;100849.63;;;11.49;44.69
44027;BME280;29696;55.698;37.460;2022-10-16T10:22:45;100854.81;;;11.51;44.44
44027;BME280;29696;55.698;37.460;2022-10-16T10:25:39;100847.78;;;11.62;44.80
44027;BME280;29696;55.698;37.460;2022-10-16T10:31:56;100851.03;;;11.66;45.98
44027;BME280;29696;55.698;37.460;2022-10-16T10:34:58;100854.13;;;11.73;45.22
44027;BME280;29696;55.698;37.460;2022-10-16T10:47:28;100851.31;;;11.87;45.23
44027;BME280;29696;55.698;37.460;2022-10-16T10:50:24;100836.91;;;11.78;45.39
44027;BME280;29696;55.698;37.460;2022-10-16T10:53:24;100850.38;;;11.75;45.02
44027;BME280;29696;55.698;37.460;2022-10-16T11:03:55;100837.03;;;11.77;45.28
44027;BME280;29696;55.698;37.460;2022-10-16T11:06:45;100839.28;;;11.70;44.91
44027;BME280;29696;55.698;37.460;2022-10-16T11:09:30;100841.94;;;11.70;45.23
44027;BME280;29696;55.698;37.460;2022-10-16T11:15:27;100833.78;;;11.73;45.54
44027;BME280;29696;55.698;37.460;2022-10-16T11:18:22;100828.88;;;11.80;45.17
44027;BME280;29696;55.698;37.460;2022-10-16T11:20:54;100826.00;;;11.83;44.75
44027;BME280;29696;55.698;37.460;2022-10-16T11:23:38;100830.28;;;11.73;45.16
44027;BME280;29696;55.698;37.460;2022-10-16T11:26:15;100834.31;;;11.65;45.21
44027;BME280;29696;55.698;37.460;2022-10-16T11:28:54;100819.50;;;11.63;45.57
44027;BME280;29696;55.698;37.460;2022-10-16T11:31:51;100831.16;;;11.60;45.85
44027;BME280;29696;55.698;37.460;2022-10-16T11:34:44;100825.84;;;11.73;45.16
44027;BME280;29696;55.698;37.460;2022-10-16T11:37:41;100821.38;;;11.74;45.10
44027;BME280;29696;55.698;37.460;2022-10-16T11:40:42;100821.38;;;11.74;45.31
44027;BME280;29696;55.698;37.460;2022-10-16T11:43:17;100820.34;;;11.63;45.71
44027;BME280;29696;55.698;37.460;2022-10-16T11:45:49;100819.41;;;11.64;45.58
44027;BME280;29696;55.698;37.460;2022-10-16T11:48:51;100821.91;;;11.79;45.21
44027;BME280;29696;55.698;37.460;2022-10-16T11:51:39;100813.06;;;11.78;45.42
44027;BME280;29696;55.698;37.460;2022-10-16T11:57:42;100816.69;;;11.77;45.51
44027;BME280;29696;55.698;37.460;2022-10-16T12:00:35;100817.91;;;11.84;45.58
44027;BME280;29696;55.698;37.460;2022-10-16T12:03:29;100824.13;;;11.85;45.71
44027;BME280;29696;55.698;37.460;2022-10-16T12:06:57;100814.38;;;11.85;45.24
44027;BME280;29696;55.698;37.460;2022-10-16T12:09:03;100817.75;;;11.75;45.14
44027;BME280;29696;55.698;37.460;2022-10-16T12:11:50;100822.38;;;11.84;45.71
44027;BME280;29696;55.698;37.460;2022-10-16T12:14:37;100819.66;;;11.85;45.43
44027;BME280;29696;55.698;37.460;2022-10-16T12:17:40;100816.03;;;11.86;45.10
44027;BME280;29696;55.698;37.460;2022-10-16T12:20:33;100802.94;;;11.85;45.18
44027;BME280;29696;55.698;37.460;2022-10-16T12:23:04;100802.84;;;11.74;45.30
44027;BME280;29696;55.698;37.460;2022-10-16T12:25:33;100802.09;;;11.72;45.17
44027;BME280;29696;55.698;37.460;2022-10-16T12:28:16;100795.13;;;11.71;45.67
44027;BME280;29696;55.698;37.460;2022-10-16T12:30:53;100798.16;;;11.77;45.33
44027;BME280;29696;55.698;37.460;2022-10-16T12:33:29;100799.13;;;11.76;45.08
44027;BME280;29696;55.698;37.460;2022-10-16T12:35:58;100793.75;;;11.65;44.91
44027;BME280;29696;55.698;37.460;2022-10-16T12:38:38;100797.78;;;11.71;45.34
44027;BME280;29696;55.698;37.460;2022-10-16T12:41:11;100796.75;;;11.60;45.32
44027;BME280;29696;55.698;37.460;2022-10-16T12:43:42;100799.59;;;11.57;45.51
44027;BME280;29696;55.698;37.460;2022-10-16T12:52:54;100796.50;;;11.63;46.06
44027;BME280;29696;55.698;37.460;2022-10-16T12:55:22;100784.41;;;11.48;46.75
44027;BME280;29696;55.698;37.460;2022-10-16T13:01:37;100796.91;;;11.46;46.39
44027;BME280;29696;55.698;37.460;2022-10-16T13:31:01;100796.97;;;11.20;46.96
44027;BME280;29696;55.698;37.460;2022-10-16T13:36:56;100787.09;;;10.99;47.20
44027;BME280;29696;55.698;37.460;2022-10-16T13:39:43;100784.97;;;10.91;48.32
44027;BME280;29696;55.698;37.460;2022-10-16T13:42:30;100795.78;;;10.88;48.14
44027;BME280;29696;55.698;37.460;2022-10-16T13:45:21;100788.91;;;10.85;48.21
44027;BME280;29696;55.698;37.460;2022-10-16T13:48:10;100784.66;;;10.83;48.47
44027;BME280;29696;55.698;37.460;2022-10-16T13:51:05;100789.22;;;10.81;48.71
44027;BME280;29696;55.698;37.460;2022-10-16T13:53:34;100785.44;;;10.72;48.61
44027;BME280;29696;55.698;37.460;2022-10-16T13:56:07;100778.69;;;10.68;48.23
44027;BME280;29696;55.698;37.460;2022-10-16T13:58:34;100781.63;;;10.63;48.58
44027;BME280;29696;55.698;37.460;2022-10-16T14:01:06;100775.59;;;10.61;48.85
44027;BME280;29696;55.698;37.460;2022-10-16T14:03:41;100789.44;;;10.52;48.98
44027;BME280;29696;55.698;37.460;2022-10-16T14:06:13;100788.72;;;10.50;49.35
44027;BME280;29696;55.698;37.460;2022-10-16T14:08:54;100791.88;;;10.42;49.54
44027;BME280;29696;55.698;37.460;2022-10-16T14:11:23;100798.00;;;10.30;50.06
44027;BME280;29696;55.698;37.460;2022-10-16T14:13:50;100799.31;;;10.23;50.22
44027;BME280;29696;55.698;37.460;2022-10-16T14:16:23;100796.66;;;10.23;50.29
44027;BME280;29696;55.698;37.460;2022-10-16T14:19:24;100799.31;;;10.23;50.46
44027;BME280;29696;55.698;37.460;2022-10-16T14:21:51;100791.03;;;10.02;50.70
44027;BME280;29696;55.698;37.460;2022-10-16T14:24:47;100787.88;;;10.10;50.92
44027;BME280;29696;55.698;37.460;2022-10-16T14:27:45;100794.44;;;10.04;50.75
44027;BME280;29696;55.698;37.460;2022-10-16T14:30:22;100793.00;;;9.86;51.41
44027;BME280;29696;55.698;37.460;2022-10-16T14:33:24;100794.50;;;9.90;51.82
44027;BME280;29696;55.698;37.460;2022-10-16T14:36:16;100795.00;;;9.82;51.63
44027;BME280;29696;55.698;37.460;2022-10-16T14:39:17;100795.50;;;9.74;52.43
44027;BME280;29696;55.698;37.460;2022-10-16T14:41:48;100792.47;;;9.53;53.45
44027;BME280;29696;55.698;37.460;2022-10-16T14:44:17;100800.38;;;9.53;53.08
44027;BME280;29696;55.698;37.460;2022-10-16T14:46:44;100798.25;;;9.46;52.93
44027;BME280;29696;55.698;37.460;2022-10-16T14:49:31;100806.69;;;9.51;53.10
44027;BME280;29696;55.698;37.460;2022-10-16T14:51:57;100800.53;;;9.37;54.91
44027;BME280;29696;55.698;37.460;2022-10-16T14:54:49;100795.72;;;9.30;53.35
44027;BME280;29696;55.698;37.460;2022-10-16T14:57:21;100797.03;;;9.37;52.88
44027;BME280;29696;55.698;37.460;2022-10-16T14:59:49;100799.31;;;9.29;53.32
44027;BME280;29696;55.698;37.460;2022-10-16T15:02:45;100799.97;;;9.32;54.24